Time;durP1;ratioP1;P1;durP2;ratioP2;P2;SDS_P1;SDS_P2;PMS_P1;PMS_P2;Temp;Humidity;BMP_temperature;BMP_pressure;BME280_temperature;BME280_humidity;BME280_pressure;Samples;Min_cycle;Max_cycle;Signal;HPM_P1;HPM_P2
2022/07/21 00:02:21;;;;;;;1.48;1.20;;;20.90;71.10;;;;;;5109851;28;20043;-79
2022/07/21 00:04:47;;;;;;;1.38;1.20;;;20.80;71.10;;;;;;5111544;28;20043;-79
2022/07/21 00:07:12;;;;;;;1.80;1.30;;;20.70;71.40;;;;;;5087595;28;20516;-79
2022/07/21 00:09:38;;;;;;;1.20;1.10;;;20.70;71.70;;;;;;5105572;28;20119;-79
2022/07/21 00:12:05;;;;;;;1.38;1.20;;;20.70;71.70;;;;;;5107607;28;20044;-79
2022/07/21 00:14:30;;;;;;;1.45;1.35;;;20.70;71.80;;;;;;5107656;28;20040;-80
2022/07/21 00:16:56;;;;;;;1.48;1.30;;;20.70;71.80;;;;;;5104205;28;20608;-79
2022/07/21 00:19:22;;;;;;;1.25;1.15;;;20.70;71.80;;;;;;5105058;28;20067;-80
2022/07/21 00:21:47;;;;;;;1.55;1.10;;;20.70;71.80;;;;;;5109512;28;20051;-79
2022/07/21 00:24:13;;;;;;;1.70;1.40;;;20.70;71.80;;;;;;5103146;28;20044;-79
2022/07/21 00:26:39;;;;;;;1.55;1.33;;;20.70;71.80;;;;;;5101922;28;20488;-79
2022/07/21 00:29:05;;;;;;;1.30;1.17;;;20.70;71.90;;;;;;5100920;28;20489;-79
2022/07/21 00:31:31;;;;;;;1.40;1.30;;;20.70;71.90;;;;;;5082669;28;20040;-79
2022/07/21 00:33:57;;;;;;;1.58;1.35;;;20.70;71.90;;;;;;5078588;28;20039;-80
2022/07/21 00:36:22;;;;;;;1.50;1.30;;;20.80;72.10;;;;;;5097484;28;20040;-79
2022/07/21 00:38:48;;;;;;;1.80;1.27;;;20.70;72.10;;;;;;5094502;28;20036;-80
2022/07/21 00:41:14;;;;;;;1.30;1.20;;;20.70;72.20;;;;;;5095366;28;20405;-79
2022/07/21 00:43:40;;;;;;;1.50;1.30;;;20.70;72.30;;;;;;5097106;28;20142;-80
2022/07/21 00:46:06;;;;;;;1.70;1.35;;;20.60;72.30;;;;;;5077098;28;20486;-79
2022/07/21 00:48:32;;;;;;;1.42;1.20;;;20.70;72.50;;;;;;5095116;28;20048;-79
2022/07/21 00:50:58;;;;;;;1.67;1.40;;;20.60;72.50;;;;;;5061076;28;20044;-79
2022/07/21 00:53:24;;;;;;;1.45;1.20;;;20.60;72.50;;;;;;5075961;28;20059;-79
2022/07/21 00:55:50;;;;;;;1.23;1.13;;;20.50;72.70;;;;;;5058396;28;20397;-79
2022/07/21 00:58:16;;;;;;;1.27;1.17;;;20.60;72.70;;;;;;5075849;28;20497;-79
2022/07/21 01:00:41;;;;;;;1.40;1.30;;;20.60;72.80;;;;;;5094218;28;20046;-79
2022/07/21 01:03:08;;;;;;;2.10;1.40;;;20.50;72.90;;;;;;5094396;28;20378;-79
2022/07/21 01:05:34;;;;;;;1.48;1.30;;;20.40;73.00;;;;;;5091250;28;20178;-79
2022/07/21 01:08:02;;;;;;;1.88;1.20;;;20.40;73.10;;;;;;5072376;28;20036;-79
2022/07/21 01:10:30;;;;;;;1.85;1.30;;;20.30;73.10;;;;;;5092030;28;20058;-79
2022/07/21 01:12:56;;;;;;;1.60;1.27;;;20.30;73.20;;;;;;5092314;28;20058;-79
2022/07/21 01:15:23;;;;;;;1.30;1.20;;;20.20;73.30;;;;;;5096527;28;20032;-78
2022/07/21 01:17:49;;;;;;;1.30;1.20;;;20.20;73.40;;;;;;5077538;28;20467;-79
2022/07/21 01:20:18;;;;;;;1.38;1.27;;;20.10;73.50;;;;;;5092527;28;20036;-79
2022/07/21 01:22:47;;;;;;;1.20;1.10;;;20.10;73.60;;;;;;5091958;28;20127;-79
2022/07/21 01:25:13;;;;;;;1.60;1.27;;;20.20;73.60;;;;;;5074164;28;20549;-79
2022/07/21 01:27:39;;;;;;;1.48;1.20;;;20.10;73.60;;;;;;5092126;28;20096;-79
2022/07/21 01:30:07;;;;;;;2.30;1.27;;;20.10;73.70;;;;;;5073446;28;20032;-79
2022/07/21 01:32:35;;;;;;;2.03;1.40;;;20.10;73.70;;;;;;5071541;28;20032;-79
2022/07/21 01:35:02;;;;;;;1.73;1.20;;;20.10;73.80;;;;;;5073576;28;20122;-79
2022/07/21 01:37:30;;;;;;;1.48;1.20;;;20.00;73.70;;;;;;5073497;28;20390;-79
2022/07/21 01:42:40;;;;;;;1.20;1.10;;;20.00;74.40;;;;;;5091590;28;20048;-79
2022/07/21 01:45:06;;;;;;;1.17;1.00;;;20.00;73.80;;;;;;5073348;28;20047;-79
2022/07/21 01:47:33;;;;;;;1.58;1.30;;;20.00;73.90;;;;;;5073499;28;20055;-79
2022/07/21 01:49:59;;;;;;;2.13;1.20;;;20.00;73.90;;;;;;5073402;28;20036;-79
2022/07/21 01:52:25;;;;;;;1.80;1.30;;;20.00;73.90;;;;;;5070094;28;20141;-79
2022/07/21 01:54:51;;;;;;;1.73;1.30;;;20.00;74.00;;;;;;5095197;28;20048;-79
2022/07/21 01:57:16;;;;;;;2.55;1.25;;;20.00;74.00;;;;;;5095502;28;20046;-79
2022/07/21 01:59:42;;;;;;;1.83;1.40;;;20.00;74.00;;;;;;5076812;28;20059;-79
2022/07/21 02:02:09;;;;;;;1.98;1.50;;;20.00;74.10;;;;;;5094907;28;20070;-78
2022/07/21 02:04:35;;;;;;;1.80;1.52;;;19.90;74.20;;;;;;5095347;28;20466;-78
2022/07/21 02:07:01;;;;;;;1.60;1.40;;;19.90;74.30;;;;;;5072413;28;20064;-79
2022/07/21 02:09:27;;;;;;;1.85;1.38;;;19.90;74.30;;;;;;5074771;28;20036;-79
2022/07/21 02:11:53;;;;;;;2.13;1.45;;;19.90;74.40;;;;;;5095257;28;20554;-79
2022/07/21 02:14:19;;;;;;;2.08;1.67;;;19.90;74.40;;;;;;5094663;28;20123;-79
2022/07/21 02:16:45;;;;;;;2.05;1.40;;;19.90;74.50;;;;;;5072155;28;20040;-79
2022/07/21 02:19:11;;;;;;;3.08;2.13;;;19.80;74.50;;;;;;5076503;28;20058;-79
2022/07/21 02:21:37;;;;;;;2.05;1.67;;;19.80;74.50;;;;;;5076771;28;20040;-79
2022/07/21 02:24:04;;;;;;;2.13;1.40;;;19.80;74.60;;;;;;5076904;28;20402;-79
2022/07/21 02:26:29;;;;;;;1.90;1.45;;;19.80;74.60;;;;;;5076888;28;20040;-79
2022/07/21 02:28:55;;;;;;;2.33;1.67;;;19.80;74.60;;;;;;5074173;28;20040;-79
2022/07/21 02:31:21;;;;;;;1.83;1.58;;;19.80;74.60;;;;;;5074264;28;20043;-79
2022/07/21 02:33:47;;;;;;;2.03;1.50;;;19.80;74.80;;;;;;5059582;28;20071;-79
2022/07/21 02:36:13;;;;;;;1.55;1.42;;;19.80;74.80;;;;;;5094415;28;20090;-79
2022/07/21 02:38:38;;;;;;;2.03;1.40;;;19.70;74.80;;;;;;5094260;28;20036;-79
2022/07/21 02:41:06;;;;;;;2.20;1.40;;;19.70;74.90;;;;;;5094214;28;20628;-79
2022/07/21 02:43:31;;;;;;;2.35;1.60;;;19.70;75.00;;;;;;5094227;28;20040;-79
2022/07/21 02:45:57;;;;;;;1.40;1.25;;;19.70;74.90;;;;;;5094494;28;20038;-79
2022/07/21 02:48:23;;;;;;;1.63;1.40;;;19.70;74.90;;;;;;5094527;28;20042;-79
2022/07/21 02:50:49;;;;;;;2.42;1.70;;;19.80;74.90;;;;;;5076159;28;20044;-79
2022/07/21 02:53:18;;;;;;;2.38;1.73;;;19.80;74.90;;;;;;5076290;28;20387;-79
2022/07/21 02:55:46;;;;;;;1.88;1.50;;;19.80;74.90;;;;;;5092452;28;20067;-78
2022/07/21 02:58:15;;;;;;;3.28;1.98;;;19.70;75.00;;;;;;5094104;28;20071;-78
2022/07/21 03:00:46;;;;;;;2.05;1.55;;;19.80;75.10;;;;;;5076161;28;20440;-78
2022/07/21 03:03:12;;;;;;;2.40;1.80;;;19.70;75.20;;;;;;5075414;28;20466;-78
2022/07/21 03:05:38;;;;;;;2.75;2.00;;;19.70;75.20;;;;;;5075910;28;20046;-78
2022/07/21 03:08:05;;;;;;;2.85;2.00;;;19.70;75.30;;;;;;5094404;28;20067;-79
2022/07/21 03:10:31;;;;;;;2.25;1.63;;;19.70;75.30;;;;;;5075485;28;20047;-79
2022/07/21 03:12:57;;;;;;;2.35;1.75;;;19.60;75.30;;;;;;5093932;28;20072;-78
2022/07/21 03:15:23;;;;;;;3.40;1.80;;;19.70;75.40;;;;;;5094003;28;20080;-78
2022/07/21 03:17:49;;;;;;;2.17;1.63;;;19.60;75.40;;;;;;5056886;28;20036;-78
2022/07/21 03:20:15;;;;;;;2.60;2.03;;;19.60;75.50;;;;;;5093754;28;20067;-78
2022/07/21 03:22:40;;;;;;;2.65;1.90;;;19.70;75.60;;;;;;5093462;28;20070;-78
2022/07/21 03:25:06;;;;;;;2.60;1.83;;;19.60;75.50;;;;;;5093918;28;20072;-78
2022/07/21 03:27:35;;;;;;;2.63;1.92;;;19.60;75.50;;;;;;5075167;28;20473;-78
2022/07/21 03:30:04;;;;;;;3.25;1.98;;;19.60;75.50;;;;;;5098657;28;20051;-79
2022/07/21 03:32:30;;;;;;;2.70;1.83;;;19.60;75.70;;;;;;5058668;28;20101;-78
2022/07/21 03:34:55;;;;;;;2.45;1.95;;;19.50;75.70;;;;;;5093301;28;20138;-78
2022/07/21 03:37:21;;;;;;;2.08;1.60;;;19.50;75.70;;;;;;5090943;28;20036;-78
2022/07/21 03:39:47;;;;;;;2.63;1.83;;;19.60;75.80;;;;;;5093182;28;20040;-78
2022/07/21 03:42:12;;;;;;;2.15;1.70;;;19.50;75.80;;;;;;5073079;28;20043;-78
2022/07/21 03:44:38;;;;;;;2.15;1.90;;;19.60;75.90;;;;;;5074889;28;20559;-78
2022/07/21 03:47:04;;;;;;;3.13;1.90;;;19.50;75.90;;;;;;5058767;28;20040;-78
2022/07/21 03:49:30;;;;;;;2.75;2.10;;;19.60;76.00;;;;;;5075175;28;20054;-78
2022/07/21 03:51:55;;;;;;;3.63;2.17;;;19.50;76.00;;;;;;5093383;28;20034;-78
2022/07/21 03:54:21;;;;;;;3.28;1.98;;;19.60;76.10;;;;;;5071103;28;20128;-78
2022/07/21 03:56:47;;;;;;;5.80;2.55;;;19.50;76.20;;;;;;5092945;28;20479;-78
2022/07/21 03:59:12;;;;;;;3.83;2.40;;;19.50;76.20;;;;;;5074931;28;20040;-78
2022/07/21 04:01:38;;;;;;;3.25;2.13;;;19.40;76.30;;;;;;5074791;28;20138;-78
2022/07/21 04:04:04;;;;;;;3.30;2.42;;;19.40;76.30;;;;;;5093354;28;20044;-78
2022/07/21 04:06:29;;;;;;;3.05;2.13;;;19.40;76.40;;;;;;5075658;28;20044;-78
2022/07/21 04:08:55;;;;;;;3.78;2.50;;;19.30;76.40;;;;;;5072879;28;20131;-78
2022/07/21 04:11:21;;;;;;;2.30;1.95;;;19.40;76.50;;;;;;5093230;28;20036;-78
2022/07/21 04:13:46;;;;;;;3.22;2.20;;;19.40;76.50;;;;;;5058623;28;20036;-78
2022/07/21 04:16:12;;;;;;;3.55;2.20;;;19.40;76.50;;;;;;5067741;28;20040;-78
2022/07/21 04:18:38;;;;;;;3.35;2.28;;;19.40;76.50;;;;;;5093143;28;20036;-78
2022/07/21 04:21:03;;;;;;;3.50;2.30;;;19.40;76.50;;;;;;5073022;28;20044;-78
2022/07/21 04:23:29;;;;;;;2.38;1.83;;;19.40;76.60;;;;;;5093486;28;20413;-78
2022/07/21 04:25:55;;;;;;;3.33;2.20;;;19.30;76.60;;;;;;5074984;28;20600;-78
2022/07/21 04:28:21;;;;;;;1.92;1.65;;;19.40;76.60;;;;;;5074858;28;20391;-78
2022/07/21 04:30:46;;;;;;;2.25;2.00;;;19.40;76.70;;;;;;5090974;28;20028;-77
2022/07/21 04:33:12;;;;;;;3.05;2.00;;;19.30;76.60;;;;;;5073328;28;20059;-78
2022/07/21 04:35:38;;;;;;;3.03;2.13;;;19.40;76.60;;;;;;5092921;28;20039;-77
2022/07/21 04:38:04;;;;;;;2.65;1.95;;;19.40;76.70;;;;;;5074371;28;20047;-77
2022/07/21 04:40:29;;;;;;;2.58;1.80;;;19.40;76.70;;;;;;5093012;28;20486;-78
2022/07/21 04:42:55;;;;;;;3.20;2.30;;;19.40;76.60;;;;;;5092831;28;20108;-78
2022/07/21 04:45:21;;;;;;;2.45;1.80;;;19.40;76.70;;;;;;5074952;28;20082;-78
2022/07/21 04:47:50;;;;;;;3.38;1.90;;;19.40;76.80;;;;;;5092503;28;20036;-78
2022/07/21 04:50:17;;;;;;;2.80;2.10;;;19.40;76.80;;;;;;5072103;28;20036;-77
2022/07/21 04:52:43;;;;;;;3.53;2.22;;;19.40;76.80;;;;;;5074660;28;20071;-77
2022/07/21 04:55:10;;;;;;;4.20;2.55;;;19.40;76.90;;;;;;5100459;28;20413;-77
2022/07/21 04:57:38;;;;;;;3.65;2.42;;;19.40;76.90;;;;;;5095010;28;20428;-77
2022/07/21 05:00:07;;;;;;;4.38;2.15;;;19.40;77.00;;;;;;5073053;28;20564;-78
2022/07/21 05:02:32;;;;;;;3.35;2.42;;;19.40;77.10;;;;;;5092312;28;20055;-78
2022/07/21 05:04:58;;;;;;;2.70;1.95;;;19.40;77.10;;;;;;5092319;28;20040;-78
2022/07/21 05:07:23;;;;;;;2.42;1.80;;;19.30;77.10;;;;;;5092461;28;20071;-79
2022/07/21 05:09:49;;;;;;;2.35;1.88;;;19.40;77.20;;;;;;5071800;28;20398;-80
2022/07/21 05:12:15;;;;;;;3.15;2.22;;;19.30;77.30;;;;;;5092508;28;20482;-79
2022/07/21 05:14:40;;;;;;;3.28;2.22;;;19.30;77.30;;;;;;5092189;28;20044;-79
2022/07/21 05:17:06;;;;;;;2.40;1.85;;;19.30;77.30;;;;;;5074140;28;20067;-78
2022/07/21 05:19:32;;;;;;;3.17;2.20;;;19.30;78.00;;;;;;5092394;28;20079;-78
2022/07/21 05:21:58;;;;;;;3.58;2.22;;;19.30;77.40;;;;;;5092239;28;20044;-78
2022/07/21 05:24:23;;;;;;;4.75;2.25;;;19.40;77.50;;;;;;5091989;28;20040;-78
2022/07/21 05:26:49;;;;;;;4.05;2.45;;;19.30;77.50;;;;;;5093497;28;20036;-79
2022/07/21 05:29:15;;;;;;;3.13;2.30;;;19.30;78.30;;;;;;5096158;28;20465;-78
2022/07/21 05:31:41;;;;;;;3.17;2.13;;;19.30;77.60;;;;;;5095646;28;20142;-78
2022/07/21 05:34:06;;;;;;;3.05;1.92;;;19.30;77.70;;;;;;5095616;28;20048;-78
2022/07/21 05:36:32;;;;;;;4.45;2.97;;;19.30;77.70;;;;;;5095933;28;20447;-79
2022/07/21 05:38:58;;;;;;;3.00;2.22;;;19.30;77.70;;;;;;5060685;28;20394;-78
2022/07/21 05:41:24;;;;;;;3.42;2.38;;;19.30;77.80;;;;;;5096234;28;20048;-78
2022/07/21 05:43:50;;;;;;;2.75;2.05;;;19.30;77.80;;;;;;5095592;28;20062;-77
2022/07/21 05:46:16;;;;;;;3.70;2.47;;;19.30;77.90;;;;;;5095466;28;20043;-79
2022/07/21 05:48:41;;;;;;;3.30;2.38;;;19.30;78.60;;;;;;5095426;28;20035;-78
2022/07/21 05:51:07;;;;;;;3.67;2.50;;;19.30;77.90;;;;;;5076983;28;20032;-76
2022/07/21 05:53:33;;;;;;;4.40;3.00;;;19.30;78.00;;;;;;5095546;28;20504;-77
2022/07/21 05:55:59;;;;;;;4.82;3.00;;;19.30;78.00;;;;;;5095966;28;20043;-78
2022/07/21 05:58:25;;;;;;;5.32;3.30;;;19.30;78.10;;;;;;5077962;28;20492;-78
2022/07/21 06:01:08;;;;;;;4.63;3.20;;;19.30;78.10;;;;;;5095419;28;20054;-77
2022/07/21 06:03:35;;;;;;;5.20;3.25;;;19.20;78.10;;;;;;5097645;28;20535;-77
2022/07/21 06:06:01;;;;;;;4.55;3.03;;;19.30;78.20;;;;;;5093766;28;20100;-77
2022/07/21 06:08:26;;;;;;;4.13;2.63;;;19.30;78.20;;;;;;5074752;28;20451;-77
2022/07/21 06:10:52;;;;;;;3.53;2.45;;;19.20;78.10;;;;;;5094946;28;20051;-77
2022/07/21 06:13:18;;;;;;;3.53;2.58;;;19.20;78.10;;;;;;5076935;28;20051;-77
2022/07/21 06:15:43;;;;;;;4.40;3.03;;;19.30;78.20;;;;;;5095426;28;20067;-78
2022/07/21 06:18:09;;;;;;;4.47;3.00;;;19.30;78.10;;;;;;5094654;28;20039;-78
2022/07/21 06:20:35;;;;;;;4.57;3.10;;;19.30;78.20;;;;;;5077121;28;20047;-77
2022/07/21 06:23:03;;;;;;;4.68;3.45;;;19.20;78.10;;;;;;5091734;28;20039;-80
2022/07/21 06:25:33;;;;;;;5.18;3.60;;;19.30;78.20;;;;;;5060109;28;20097;-79
2022/07/21 06:27:59;;;;;;;4.20;2.80;;;19.30;78.30;;;;;;5076223;28;20444;-75
2022/07/21 06:30:50;;;;;;;5.30;3.78;;;19.30;78.20;;;;;;5076658;28;20040;-80
2022/07/21 06:33:19;;;;;;;5.30;3.55;;;19.30;78.20;;;;;;5074100;28;20040;-76
2022/07/21 06:35:50;;;;;;;3.45;2.67;;;19.30;78.10;;;;;;5058308;28;20044;-79
2022/07/21 06:38:16;;;;;;;3.60;2.67;;;19.30;78.00;;;;;;5041482;28;20135;-76
2022/07/21 06:40:49;;;;;;;3.72;2.60;;;19.40;78.60;;;;;;5075268;28;20529;-76
2022/07/21 06:43:16;;;;;;;3.35;2.10;;;19.50;77.90;;;;;;5058095;28;20464;-78
2022/07/21 06:46:37;;;;;;;4.75;2.55;;;19.50;77.80;;;;;;5094727;28;20042;-77
2022/07/21 06:49:30;;;;;;;;;;;19.50;77.70;;;;;;5007850;28;20044;-76
2022/07/21 06:53:11;;;;;;;4.05;2.30;;;19.60;77.50;;;;;;4975173;28;19968;-77
2022/07/21 06:55:51;;;;;;;3.80;2.78;;;19.60;77.30;;;;;;5006616;28;20042;-79
2022/07/21 07:01:59;;;;;;;4.72;3.08;;;19.70;77.90;;;;;;4932849;29;20111;-76
2022/07/21 07:04:25;;;;;;;4.60;3.05;;;19.80;77.00;;;;;;4938804;29;20071;-76
2022/07/21 07:06:56;;;;;;;4.00;2.70;;;19.80;77.00;;;;;;4935600;29;20071;-79
2022/07/21 07:09:54;;;;;;;3.92;2.70;;;19.80;77.00;;;;;;4918359;29;20491;-80
2022/07/21 07:12:20;;;;;;;3.90;2.42;;;19.90;77.10;;;;;;4904412;29;20543;-78
2022/07/21 07:15:00;;;;;;;4.30;2.65;;;20.00;76.90;;;;;;4900316;29;20061;-80
2022/07/21 07:17:26;;;;;;;4.97;3.05;;;19.90;76.90;;;;;;4878046;29;20040;-77
2022/07/21 07:29:49;;;;;;;3.38;2.13;;;20.10;76.90;;;;;;4785366;30;20059;-79
2022/07/21 07:32:29;;;;;;;3.58;2.28;;;20.10;77.00;;;;;;4737864;30;20059;-78
2022/07/21 07:34:55;;;;;;;4.53;2.75;;;20.10;77.00;;;;;;4734117;30;20052;-76
2022/07/21 07:44:42;;;;;;;2.97;2.03;;;20.10;77.10;;;;;;4803865;29;20049;-76
2022/07/21 07:47:12;;;;;;;;;;;20.20;76.90;;;;;;4804418;29;20110;-76
2022/07/21 07:49:50;;;;;;;4.03;2.70;;;20.20;76.70;;;;;;4772155;29;19917;-76
2022/07/21 07:52:16;;;;;;;3.92;2.50;;;20.20;76.60;;;;;;4755072;29;20153;-76
2022/07/21 07:54:44;;;;;;;5.57;3.53;;;20.20;76.60;;;;;;4852709;29;20467;-77
2022/07/21 07:57:29;;;;;;;6.43;3.90;;;20.20;76.60;;;;;;4836120;29;20054;-77
2022/07/21 08:03:05;;;;;;;6.13;4.07;;;20.20;76.60;;;;;;4845909;29;20069;-76
2022/07/21 08:05:31;;;;;;;6.72;3.85;;;20.10;76.60;;;;;;4853084;29;20438;-77
2022/07/21 08:07:56;;;;;;;5.28;3.50;;;20.20;76.50;;;;;;4822845;29;20083;-75
2022/07/21 08:10:22;;;;;;;3.80;2.85;;;20.30;76.50;;;;;;4860370;29;20041;-75
2022/07/21 08:12:48;;;;;;;5.35;3.75;;;20.30;76.50;;;;;;4858976;29;20369;-76
2022/07/21 08:15:15;;;;;;;5.45;3.63;;;20.30;76.30;;;;;;4876627;29;20131;-75
2022/07/21 08:17:54;;;;;;;4.95;3.45;;;20.40;76.40;;;;;;4924311;29;20584;-76
2022/07/21 08:20:23;;;;;;;4.28;3.00;;;20.40;76.30;;;;;;4902659;29;20179;-75
2022/07/21 08:22:58;;;;;;;6.05;3.67;;;20.50;76.30;;;;;;4995306;28;20049;-76
2022/07/21 08:25:26;;;;;;;4.80;3.45;;;20.50;76.10;;;;;;5012390;28;20064;-76
2022/07/21 08:27:55;;;;;;;5.72;3.55;;;20.60;76.10;;;;;;4957353;28;20085;-78
2022/07/21 08:30:21;;;;;;;5.43;3.47;;;20.60;76.10;;;;;;4958807;28;20038;-75
2022/07/21 08:32:47;;;;;;;5.20;3.58;;;20.60;76.00;;;;;;4978761;28;20481;-77
2022/07/21 08:35:12;;;;;;;5.22;3.55;;;20.50;76.00;;;;;;5014532;28;20056;-76
2022/07/21 08:37:39;;;;;;;4.18;2.92;;;20.70;76.40;;;;;;5034002;28;20514;-74
2022/07/21 08:40:08;;;;;;;5.50;3.55;;;20.70;76.10;;;;;;5014375;28;20150;-74
2022/07/21 08:42:34;;;;;;;6.03;3.38;;;20.60;76.10;;;;;;5030381;28;20491;-75
2022/07/21 08:45:01;;;;;;;5.93;3.97;;;20.60;76.00;;;;;;5013681;28;20559;-76
2022/07/21 08:47:27;;;;;;;5.10;3.60;;;20.60;76.10;;;;;;4997138;28;20046;-75
2022/07/21 08:49:54;;;;;;;5.60;3.33;;;20.50;76.30;;;;;;5030574;28;20065;-76
2022/07/21 08:52:20;;;;;;;4.30;3.00;;;20.50;76.40;;;;;;4997905;28;20385;-76
2022/07/21 08:54:49;;;;;;;3.78;2.38;;;20.50;76.40;;;;;;5014569;28;20530;-76
2022/07/21 08:57:19;;;;;;;4.95;3.10;;;20.50;76.50;;;;;;4998330;28;20045;-78
2022/07/21 08:59:45;;;;;;;3.67;2.67;;;20.50;76.60;;;;;;5054674;28;20393;-76
2022/07/21 09:02:44;;;;;;;4.68;3.20;;;20.40;76.70;;;;;;5075076;28;20048;-79
2022/07/21 09:05:10;;;;;;;6.25;3.78;;;20.40;76.80;;;;;;5086122;28;20048;-76
2022/07/21 09:07:48;;;;;;;6.70;3.35;;;20.40;76.80;;;;;;5035010;28;20035;-77
2022/07/21 09:10:40;;;;;;;5.07;3.50;;;20.40;77.00;;;;;;5069756;28;20131;-78
2022/07/21 09:13:09;;;;;;;4.55;3.13;;;20.30;76.90;;;;;;5012455;28;20084;-79
2022/07/21 09:16:19;;;;;;;4.68;2.90;;;20.30;76.90;;;;;;4998032;28;20033;-79
2022/07/21 09:33:01;;;;;;;3.42;2.17;;;20.00;77.50;;;;;;4819714;29;20057;-79
2022/07/21 09:49:42;;;;;;;1.73;1.50;;;19.70;78.70;;;;;;4811684;29;20114;-82
2022/07/21 09:52:37;;;;;;;2.38;1.52;;;19.60;78.80;;;;;;4824443;29;20107;-79
2022/07/21 09:55:48;;;;;;;1.75;1.30;;;19.60;79.20;;;;;;4836287;29;20034;-81
2022/07/21 10:02:32;;;;;;;2.17;1.05;;;19.50;79.40;;;;;;4802228;29;20043;-79
2022/07/21 10:05:04;;;;;;;2.05;1.05;;;19.50;79.30;;;;;;4783468;29;20051;-80
2022/07/21 10:07:51;;;;;;;1.88;1.25;;;19.50;79.40;;;;;;4745998;29;20086;-81
2022/07/21 10:10:46;;;;;;;1.30;1.05;;;19.50;79.50;;;;;;4816515;29;20051;-82
2022/07/21 10:20:33;;;;;;;1.40;1.00;;;19.50;79.70;;;;;;4806373;29;20054;-81
2022/07/21 10:23:14;;;;;;;0.80;0.80;;;19.50;79.70;;;;;;4831116;29;20045;-80
2022/07/21 10:25:41;;;;;;;0.90;0.85;;;19.50;79.60;;;;;;4873063;29;20049;-81
2022/07/21 10:28:22;;;;;;;2.55;1.23;;;19.40;79.50;;;;;;4898008;29;20116;-80
2022/07/21 10:30:51;;;;;;;1.20;1.10;;;19.40;79.70;;;;;;4897115;29;20143;-81
2022/07/21 10:33:19;;;;;;;1.58;1.30;;;19.40;79.90;;;;;;4897515;29;20048;-81
2022/07/21 10:35:48;;;;;;;0.93;0.82;;;19.40;80.00;;;;;;4897462;29;20071;-81
2022/07/21 10:38:27;;;;;;;1.10;1.00;;;19.40;80.00;;;;;;4922067;28;20108;-81
2022/07/21 10:40:53;;;;;;;1.00;0.90;;;19.50;80.20;;;;;;4996297;28;20041;-81
2022/07/21 10:43:38;;;;;;;0.82;0.82;;;19.50;80.10;;;;;;4995936;28;20056;-82
2022/07/21 12:57:15;;;;;;;1.80;1.30;;;19.60;81.30;;;;;;5214912;22;20057;-79
2022/07/21 16:13:29;;;;;;;0.50;0.50;;;19.60;82.90;;;;;;4915192;29;20060;-80
2022/07/21 16:15:54;;;;;;;1.20;0.70;;;19.60;82.80;;;;;;4886440;29;20044;-79
2022/07/21 16:18:20;;;;;;;0.47;0.47;;;19.60;82.80;;;;;;4916232;29;20394;-79
2022/07/21 16:20:46;;;;;;;0.63;0.63;;;19.70;82.80;;;;;;4917989;29;20470;-79
2022/07/21 16:23:11;;;;;;;0.52;0.52;;;19.70;82.80;;;;;;4915298;29;20102;-79
2022/07/21 16:25:37;;;;;;;0.70;0.70;;;19.80;82.80;;;;;;4901584;29;20052;-79
2022/07/21 16:28:03;;;;;;;0.70;0.60;;;19.80;82.80;;;;;;4920551;29;20077;-79
2022/07/21 16:30:29;;;;;;;0.68;0.68;;;19.80;82.90;;;;;;4900870;29;20032;-80
2022/07/21 16:32:54;;;;;;;0.50;0.50;;;19.70;82.80;;;;;;4917140;29;20052;-82
2022/07/21 16:35:20;;;;;;;1.05;0.80;;;19.70;82.80;;;;;;4884110;29;20139;-81
2022/07/21 16:37:50;;;;;;;1.85;1.20;;;19.70;82.90;;;;;;4868276;29;20112;-82
2022/07/21 16:40:18;;;;;;;0.82;0.82;;;19.70;82.90;;;;;;4916561;29;20075;-82
2022/07/21 16:42:47;;;;;;;1.30;1.10;;;19.70;83.00;;;;;;4914928;29;20131;-81
2022/07/21 16:45:14;;;;;;;0.80;0.70;;;19.70;82.90;;;;;;4890769;29;20510;-81
2022/07/21 16:47:40;;;;;;;0.70;0.70;;;19.70;83.00;;;;;;4883716;29;20526;-80
2022/07/21 16:50:06;;;;;;;0.80;0.80;;;19.70;83.00;;;;;;4914751;29;20069;-81
2022/07/21 16:52:32;;;;;;;0.52;0.52;;;19.60;82.90;;;;;;4916366;29;20131;-83
2022/07/21 16:54:57;;;;;;;0.68;0.60;;;19.60;83.10;;;;;;4875992;29;20387;-83
2022/07/21 16:57:23;;;;;;;2.28;0.55;;;19.50;83.10;;;;;;4882771;29;20083;-83
2022/07/21 16:59:53;;;;;;;0.60;0.60;;;19.50;83.20;;;;;;4881882;29;20036;-83
2022/07/21 17:02:22;;;;;;;0.88;0.50;;;19.40;83.40;;;;;;4864329;29;20460;-83
2022/07/21 17:04:47;;;;;;;0.40;0.40;;;19.30;83.50;;;;;;4880382;29;20146;-82
2022/07/21 17:07:13;;;;;;;0.68;0.40;;;19.30;83.50;;;;;;4880762;29;20087;-84
2022/07/21 17:09:41;;;;;;;1.05;0.50;;;19.30;83.60;;;;;;4880842;29;20072;-84
2022/07/21 17:12:08;;;;;;;0.30;0.30;;;19.20;83.60;;;;;;4864776;29;20127;-81
2022/07/21 17:14:34;;;;;;;0.85;0.40;;;19.10;83.60;;;;;;4863828;29;20055;-80
2022/07/21 17:17:00;;;;;;;0.32;0.20;;;19.10;83.80;;;;;;4885646;29;20047;-82
2022/07/21 17:19:26;;;;;;;0.80;0.30;;;19.00;83.90;;;;;;4885775;29;20143;-82
2022/07/21 17:21:51;;;;;;;0.30;0.30;;;19.00;84.00;;;;;;4886489;29;20059;-82
2022/07/21 17:24:17;;;;;;;0.30;0.30;;;19.00;84.00;;;;;;4887310;29;20056;-82
2022/07/21 17:26:43;;;;;;;0.25;0.25;;;18.90;84.00;;;;;;4886357;29;20052;-83
2022/07/21 17:29:09;;;;;;;0.38;0.30;;;18.90;84.10;;;;;;4874151;29;20076;-82
2022/07/21 17:31:34;;;;;;;0.20;0.20;;;18.90;84.10;;;;;;4902951;29;20084;-82
2022/07/21 17:34:00;;;;;;;0.40;0.30;;;18.90;84.10;;;;;;4885233;29;20058;-82
2022/07/21 17:36:26;;;;;;;0.10;0.10;;;18.80;84.10;;;;;;4873684;29;20044;-84
2022/07/21 17:38:52;;;;;;;0.17;0.15;;;18.80;84.10;;;;;;4922018;29;20101;-84
2022/07/21 17:41:18;;;;;;;0.35;0.28;;;18.70;84.10;;;;;;4877007;29;20048;-81
2022/07/21 17:43:44;;;;;;;0.75;0.20;;;18.70;84.20;;;;;;4921711;29;20055;-81
2022/07/21 17:46:09;;;;;;;0.38;0.30;;;18.80;84.30;;;;;;4908505;29;20138;-82
2022/07/21 17:48:35;;;;;;;0.60;0.30;;;18.80;84.20;;;;;;4904202;29;20091;-83
2022/07/21 17:51:01;;;;;;;0.20;0.20;;;18.80;84.30;;;;;;4909139;29;20507;-82
2022/07/21 19:46:48;;;;;;;0.30;0.30;;;17.80;84.60;;;;;;4845010;29;20053;-80
2022/07/21 19:49:49;;;;;;;0.98;0.30;;;17.60;84.50;;;;;;4834472;29;21178;-82
2022/07/21 19:52:22;;;;;;;0.93;0.43;;;17.70;84.60;;;;;;4794303;29;20090;-81
2022/07/21 19:58:10;;;;;;;0.30;0.30;;;17.70;84.60;;;;;;4761324;30;20056;-80
2022/07/21 20:00:38;;;;;;;0.68;0.45;;;17.70;84.60;;;;;;4745252;30;20055;-82
2022/07/21 20:03:04;;;;;;;1.10;0.60;;;17.70;84.60;;;;;;4734916;30;20051;-81
2022/07/21 20:05:30;;;;;;;0.60;0.40;;;17.70;84.60;;;;;;4735199;30;20056;-81
2022/07/21 20:07:56;;;;;;;0.75;0.50;;;17.60;84.60;;;;;;4749476;30;20116;-81
2022/07/21 20:10:22;;;;;;;0.73;0.30;;;17.60;84.60;;;;;;4736118;30;20056;-81
2022/07/21 20:12:48;;;;;;;0.40;0.40;;;17.60;84.70;;;;;;4722159;30;20040;-82
2022/07/21 20:15:14;;;;;;;0.40;0.40;;;17.60;84.60;;;;;;4752804;30;20485;-81
2022/07/21 20:17:41;;;;;;;0.90;0.60;;;17.60;84.70;;;;;;4752626;30;20119;-81
2022/07/21 20:20:07;;;;;;;0.95;0.50;;;17.60;84.60;;;;;;4768098;30;20039;-81
2022/07/21 20:22:33;;;;;;;0.70;0.40;;;17.60;84.60;;;;;;4776314;29;20046;-81
2022/07/21 20:24:59;;;;;;;0.40;0.40;;;17.60;84.60;;;;;;4823951;29;20046;-81
2022/07/21 20:27:26;;;;;;;1.42;0.47;;;17.70;84.70;;;;;;4839373;29;20037;-82
2022/07/21 20:29:52;;;;;;;0.40;0.40;;;17.60;84.60;;;;;;4886377;29;20029;-81
2022/07/21 20:32:18;;;;;;;0.52;0.47;;;17.50;84.50;;;;;;4873069;29;20124;-81
2022/07/21 20:34:44;;;;;;;0.30;0.30;;;17.60;84.50;;;;;;4903824;29;20052;-81
2022/07/21 20:37:10;;;;;;;0.98;0.57;;;17.60;84.50;;;;;;4900652;29;20040;-81
2022/07/21 20:39:36;;;;;;;0.77;0.40;;;17.60;84.50;;;;;;4899685;29;20040;-81
2022/07/21 20:42:01;;;;;;;1.17;0.50;;;17.60;84.60;;;;;;4883012;29;20096;-81
2022/07/21 20:44:27;;;;;;;0.35;0.35;;;17.50;84.40;;;;;;4882108;29;20056;-80
2022/07/21 20:46:53;;;;;;;1.10;0.57;;;17.70;84.60;;;;;;4882086;29;20076;-81
2022/07/21 20:49:19;;;;;;;0.73;0.50;;;17.60;84.60;;;;;;4899233;29;20131;-81
2022/07/21 20:51:44;;;;;;;0.52;0.47;;;17.50;84.40;;;;;;4852411;29;20040;-81
2022/07/21 20:54:10;;;;;;;1.15;0.40;;;17.50;85.10;;;;;;4881697;29;20451;-81
2022/07/21 20:56:36;;;;;;;0.98;0.43;;;17.50;84.50;;;;;;4883309;29;20427;-81
2022/07/21 20:59:02;;;;;;;0.40;0.30;;;17.60;84.50;;;;;;4882284;29;20048;-80
2022/07/21 21:01:27;;;;;;;0.57;0.43;;;17.60;84.50;;;;;;4900604;29;20119;-80
2022/07/21 21:03:53;;;;;;;0.40;0.40;;;17.60;84.40;;;;;;4901879;29;20942;-80
2022/07/21 21:06:20;;;;;;;2.08;0.70;;;17.60;84.40;;;;;;4919416;29;20055;-81
2022/07/21 21:08:45;;;;;;;1.23;0.57;;;17.60;84.30;;;;;;4919602;29;20039;-80
2022/07/21 21:11:12;;;;;;;0.40;0.40;;;17.50;84.30;;;;;;4868041;29;20029;-80
2022/07/21 21:13:38;;;;;;;0.45;0.43;;;17.60;84.30;;;;;;4867339;29;20063;-80
2022/07/21 21:16:04;;;;;;;0.65;0.50;;;17.50;84.30;;;;;;4880270;29;20369;-83
2022/07/21 21:18:29;;;;;;;1.40;0.77;;;17.50;84.30;;;;;;4897915;29;20531;-84
2022/07/21 21:20:55;;;;;;;0.77;0.60;;;17.50;84.30;;;;;;4866283;29;20100;-82
2022/07/21 21:23:21;;;;;;;0.88;0.50;;;17.50;84.30;;;;;;4896386;29;20142;-80